Time;durP1;ratioP1;P1;durP2;ratioP2;P2;SDS_P1;SDS_P2;PMS_P1;PMS_P2;Temp;Humidity;BMP_temperature;BMP_pressure;BME280_temperature;BME280_humidity;BME280_pressure;Samples;Min_cycle;Max_cycle;Signal;HPM_P1;HPM_P2
2022/09/07 00:01:01;;;;;;;;;;;;;;;23.55;62.94;100858.31;2047919;28;19937;-75
2022/09/07 00:02:22;;;;;;;;;;;;;;;23.54;62.89;100847.56;2040454;29;19926;-76
2022/09/07 00:03:44;;;;;;;;;;;;;;;23.54;62.82;100851.16;2053443;28;20051;-76
2022/09/07 00:05:05;;;;;;;;;;;;;;;23.58;62.72;100851.91;2038591;29;20017;-76
2022/09/07 00:06:28;;;;;;;;;;;;;;;23.59;62.65;100854.56;2042980;29;19926;-75
2022/09/07 00:07:49;;;;;;;;;;;;;;;23.59;62.68;100848.28;2045024;29;19926;-76
2022/09/07 00:09:11;;;;;;;;;;;;;;;23.60;62.70;100848.22;2044566;29;20017;-77
2022/09/07 00:10:32;;;;;;;;;;;;;;;23.61;62.63;100851.81;2047528;28;19926;-76
2022/09/07 00:11:55;;;;;;;;;;;;;;;23.61;62.71;100852.69;2064576;28;19928;-76
2022/09/07 00:13:17;;;;;;;;;;;;;;;23.60;62.64;100848.22;2056203;28;20314;-76
2022/09/07 00:14:39;;;;;;;;;;;;;;;23.58;62.64;100852.78;2051024;28;19944;-76
2022/09/07 00:16:03;;;;;;;;;;;;;;;23.60;62.63;100853.63;2058379;28;20094;-76
2022/09/07 00:17:25;;;;;;;;;;;;;;;23.61;62.64;100854.50;2052390;28;19945;-75
2022/09/07 00:18:46;;;;;;;;;;;;;;;23.64;62.65;100848.97;2067260;28;19922;-76
2022/09/07 00:20:09;;;;;;;;;;;;;;;23.64;62.63;100849.88;2061852;28;20013;-75
2022/09/07 00:21:32;;;;;;;;;;;;;;;23.66;62.62;100857.91;2052837;28;19926;-76
2022/09/07 00:22:53;;;;;;;;;;;;;;;23.65;62.65;100853.44;2050634;28;19972;-75
2022/09/07 00:24:15;;;;;;;;;;;;;;;23.62;62.67;100851.75;2050158;28;20024;-76
2022/09/07 00:25:37;;;;;;;;;;;;;;;23.62;62.75;100851.75;2058183;28;19956;-77
2022/09/07 00:27:02;;;;;;;;;;;;;;;23.64;62.38;100852.56;2053887;28;20394;-76
2022/09/07 00:28:23;;;;;;;;;;;;;;;23.66;62.45;100852.50;2052249;28;19926;-75
2022/09/07 00:29:45;;;;;;;;;;;;;;;23.63;62.47;100848.09;2060726;28;20388;-77
2022/09/07 00:31:09;;;;;;;;;;;;;;;23.63;62.49;100841.84;2053813;28;19973;-76
2022/09/07 00:32:31;;;;;;;;;;;;;;;23.61;62.41;100852.69;2048722;28;19945;-75
2022/09/07 00:33:53;;;;;;;;;;;;;;;23.61;62.38;100841.91;2058794;28;20634;-76
2022/09/07 00:35:15;;;;;;;;;;;;;;;23.61;62.40;100835.63;2054272;28;19961;-75
2022/09/07 00:36:37;;;;;;;;;;;;;;;23.61;62.35;100832.94;2050484;28;19971;-76
2022/09/07 00:37:58;;;;;;;;;;;;;;;23.60;62.29;100839.25;2047123;28;19926;-75
2022/09/07 00:39:20;;;;;;;;;;;;;;;23.58;62.42;100844.69;2053639;28;19957;-76
2022/09/07 00:40:41;;;;;;;;;;;;;;;23.57;62.46;100829.47;2045710;29;19929;-76
2022/09/07 00:42:05;;;;;;;;;;;;;;;23.57;62.32;100837.53;2053754;28;20706;-77
2022/09/07 00:43:30;;;;;;;;;;;;;;;23.57;62.25;100828.56;2053910;28;19922;-76
2022/09/07 00:45:00;;;;;;;;;;;;;;;23.56;62.37;100826.84;2053017;28;20412;-75
2022/09/07 00:46:23;;;;;;;;;;;;;;;23.57;62.40;100825.88;2062643;28;19949;-76
2022/09/07 00:47:47;;;;;;;;;;;;;;;23.57;62.37;100820.50;2060120;28;19921;-75
2022/09/07 00:49:10;;;;;;;;;;;;;;;23.57;62.42;100828.56;2052162;28;20653;-76
2022/09/07 00:50:34;;;;;;;;;;;;;;;23.55;62.64;100842.13;2050288;28;19985;-76
2022/09/07 00:51:58;;;;;;;;;;;;;;;23.51;62.68;100834.19;2058518;28;20370;-76
2022/09/07 00:53:20;;;;;;;;;;;;;;;23.50;62.55;100837.84;2044376;28;20424;-76
2022/09/07 00:54:45;;;;;;;;;;;;;;;23.45;62.68;100828.06;2051181;28;20048;-76
2022/09/07 00:56:08;;;;;;;;;;;;;;;23.44;62.80;100836.19;2059583;28;19929;-76
2022/09/07 00:57:31;;;;;;;;;;;;;;;23.41;62.78;100828.25;2043583;28;19958;-76
2022/09/07 00:58:54;;;;;;;;;;;;;;;23.40;62.86;100830.06;2055126;28;21238;-76
2022/09/07 01:00:15;;;;;;;;;;;;;;;23.38;62.96;100831.91;2069996;28;19963;-75
2022/09/07 01:01:38;;;;;;;;;;;;;;;23.38;62.89;100837.31;2064035;28;19921;-76
2022/09/07 01:03:00;;;;;;;;;;;;;;;23.36;62.91;100828.41;2047765;28;20327;-75
2022/09/07 01:04:23;;;;;;;;;;;;;;;23.35;62.82;100836.56;2051798;28;19921;-76
2022/09/07 01:05:45;;;;;;;;;;;;;;;23.34;62.81;100827.59;2055125;28;20048;-76
2022/09/07 01:07:08;;;;;;;;;;;;;;;23.36;62.78;100827.53;2069523;28;20356;-76
2022/09/07 01:08:30;;;;;;;;;;;;;;;23.37;62.75;100835.53;2056053;28;19958;-76
2022/09/07 01:09:52;;;;;;;;;;;;;;;23.37;62.72;100827.47;2047622;28;19922;-75
2022/09/07 01:11:14;;;;;;;;;;;;;;;23.37;62.70;100829.28;2052080;28;19922;-76
2022/09/07 01:12:37;;;;;;;;;;;;;;;23.35;62.64;100832.03;2054344;28;19945;-76
2022/09/07 01:13:59;;;;;;;;;;;;;;;23.37;62.59;100823.88;2059214;28;19921;-76
2022/09/07 01:15:21;;;;;;;;;;;;;;;23.39;62.73;100827.41;2063126;28;20016;-76
2022/09/07 01:16:55;;;;;;;;;;;;;;;23.38;62.55;100809.47;2062257;28;20563;-76
2022/09/07 01:18:27;;;;;;;;;;;;;;;23.39;62.60;100819.31;2061803;28;20551;-76
2022/09/07 01:20:07;;;;;;;;;;;;;;;23.38;62.49;100818.44;2057517;28;20453;-76
2022/09/07 01:21:34;;;;;;;;;;;;;;;23.39;62.51;100816.63;2049223;29;19929;-76
2022/09/07 01:23:06;;;;;;;;;;;;;;;23.37;62.53;100821.19;2059083;28;19960;-76
2022/09/07 01:24:38;;;;;;;;;;;;;;;23.36;62.62;100816.75;2064202;28;19921;-77
2022/09/07 01:26:11;;;;;;;;;;;;;;;23.33;62.82;100823.13;2055470;28;20414;-75
2022/09/07 01:27:48;;;;;;;;;;;;;;;23.35;62.69;100820.38;2058124;28;20036;-76
2022/09/07 01:29:15;;;;;;;;;;;;;;;23.35;62.70;100812.31;2054357;28;19926;-76
2022/09/07 01:30:39;;;;;;;;;;;;;;;23.36;62.71;100816.75;2061791;28;19957;-76
2022/09/07 01:32:04;;;;;;;;;;;;;;;23.38;62.66;100813.06;2054579;28;19961;-76
2022/09/07 01:33:34;;;;;;;;;;;;;;;23.39;62.58;100813.94;2062361;28;19922;-75
2022/09/07 01:34:55;;;;;;;;;;;;;;;23.37;62.68;100811.28;2062213;28;19926;-76
2022/09/07 01:36:22;;;;;;;;;;;;;;;23.35;62.62;100806.91;2060616;28;19922;-76
2022/09/07 01:37:49;;;;;;;;;;;;;;;23.32;62.78;100805.19;2062501;28;19961;-76
2022/09/07 01:39:11;;;;;;;;;;;;;;;23.31;62.84;100802.53;2056080;28;19926;-76
2022/09/07 01:40:39;;;;;;;;;;;;;;;23.30;62.94;100809.75;2054369;28;20606;-76
2022/09/07 01:42:05;;;;;;;;;;;;;;;23.30;62.90;100795.44;2062037;28;19925;-76
2022/09/07 01:43:30;;;;;;;;;;;;;;;23.30;62.67;100804.34;2070896;28;20347;-76
2022/09/07 01:44:58;;;;;;;;;;;;;;;23.30;62.71;100808.91;2063464;28;20436;-75
2022/09/07 01:46:21;;;;;;;;;;;;;;;23.30;62.67;100807.06;2063576;28;19953;-76
2022/09/07 01:47:46;;;;;;;;;;;;;;;23.28;62.71;100803.56;2056281;28;20369;-76
2022/09/07 01:49:11;;;;;;;;;;;;;;;23.27;62.70;100803.59;2060598;28;20024;-75
2022/09/07 01:50:36;;;;;;;;;;;;;;;23.27;62.64;100804.50;2046062;28;19937;-76
2022/09/07 01:52:02;;;;;;;;;;;;;;;23.29;62.54;100799.06;2047066;29;19922;-75
2022/09/07 01:53:26;;;;;;;;;;;;;;;23.32;62.49;100804.31;2053703;28;20719;-76
2022/09/07 01:54:51;;;;;;;;;;;;;;;23.32;62.45;100805.19;2056340;28;20037;-76
2022/09/07 01:56:15;;;;;;;;;;;;;;;23.34;62.42;100802.44;2056561;28;19922;-76
2022/09/07 01:57:38;;;;;;;;;;;;;;;23.34;62.39;100799.75;2062850;28;19957;-75
2022/09/07 01:59:02;;;;;;;;;;;;;;;23.34;62.40;100795.25;2050752;28;20017;-76
2022/09/07 02:00:25;;;;;;;;;;;;;;;23.34;62.45;100795.25;2053388;28;19949;-76
2022/09/07 02:01:50;;;;;;;;;;;;;;;23.34;62.34;100797.06;2049109;29;19976;-76
2022/09/07 02:03:14;;;;;;;;;;;;;;;23.33;62.35;100790.78;2058159;28;19956;-76
2022/09/07 02:04:38;;;;;;;;;;;;;;;23.31;62.35;100802.53;2061822;28;20352;-75
2022/09/07 02:06:02;;;;;;;;;;;;;;;23.30;62.33;100801.66;2057969;28;19984;-75
2022/09/07 02:07:28;;;;;;;;;;;;;;;23.31;62.31;100799.84;2054887;28;20835;-75
2022/09/07 02:08:52;;;;;;;;;;;;;;;23.27;62.25;100791.03;2054554;28;20286;-74
2022/09/07 02:10:17;;;;;;;;;;;;;;;23.28;62.31;100783.81;2060396;28;20437;-75
2022/09/07 02:11:42;;;;;;;;;;;;;;;23.30;62.33;100793.59;2061562;28;19926;-75
2022/09/07 02:13:07;;;;;;;;;;;;;;;23.35;62.18;100791.63;2065035;28;19972;-76
2022/09/07 02:14:30;;;;;;;;;;;;;;;23.39;61.87;100789.69;2042735;29;20301;-75
2022/09/07 02:15:57;;;;;;;;;;;;;;;23.40;61.96;100791.44;2045563;28;20009;-75
2022/09/07 02:17:21;;;;;;;;;;;;;;;23.41;61.81;100790.53;2054740;28;19953;-75
2022/09/07 02:18:45;;;;;;;;;;;;;;;23.37;61.94;100795.13;2060689;28;19945;-75
2022/09/07 02:20:09;;;;;;;;;;;;;;;23.34;62.01;100792.56;2053867;28;19965;-75
2022/09/07 02:21:35;;;;;;;;;;;;;;;23.32;62.05;100789.03;2058408;28;19926;-75
2022/09/07 02:22:57;;;;;;;;;;;;;;;23.33;62.17;100787.22;2054512;28;19929;-75
2022/09/07 02:24:23;;;;;;;;;;;;;;;23.35;61.85;100788.06;2054705;28;19949;-76
2022/09/07 02:25:47;;;;;;;;;;;;;;;23.37;61.96;100794.25;2058461;28;19957;-76
2022/09/07 02:27:11;;;;;;;;;;;;;;;23.34;62.03;100783.59;2056142;28;19965;-75
2022/09/07 02:28:35;;;;;;;;;;;;;;;23.32;61.98;100789.03;2053758;28;19926;-75
2022/09/07 02:29:56;;;;;;;;;;;;;;;23.32;61.99;100782.75;2059922;28;19921;-75
2022/09/07 02:31:20;;;;;;;;;;;;;;;23.29;61.89;100790.97;2062341;28;19925;-74
2022/09/07 02:32:41;;;;;;;;;;;;;;;23.28;62.03;100794.59;2061765;28;19922;-75
2022/09/07 02:34:04;;;;;;;;;;;;;;;23.29;61.82;100796.34;2052391;28;20383;-75
2022/09/07 02:35:26;;;;;;;;;;;;;;;23.29;61.80;100788.28;2061773;28;20311;-75
2022/09/07 02:36:49;;;;;;;;;;;;;;;23.30;61.84;100785.50;2057711;28;20381;-75
2022/09/07 02:38:11;;;;;;;;;;;;;;;23.31;61.87;100795.34;2062600;28;19929;-75
2022/09/07 02:39:34;;;;;;;;;;;;;;;23.33;62.02;100782.72;2045910;29;20029;-75
2022/09/07 02:40:57;;;;;;;;;;;;;;;23.37;61.97;100796.94;2051825;28;19963;-74
2022/09/07 02:42:19;;;;;;;;;;;;;;;23.40;61.78;100789.63;2051013;28;20401;-75
2022/09/07 02:43:42;;;;;;;;;;;;;;;23.46;61.52;100791.22;2058755;28;19937;-75
2022/09/07 02:45:06;;;;;;;;;;;;;;;23.48;61.55;100794.78;2057066;28;20445;-75
2022/09/07 02:46:36;;;;;;;;;;;;;;;23.49;61.76;100784.88;2062793;28;20381;-76
2022/09/07 02:48:09;;;;;;;;;;;;;;;23.45;61.81;100792.16;2054856;28;19957;-75
2022/09/07 02:49:38;;;;;;;;;;;;;;;23.42;62.07;100792.28;2054592;28;19926;-75
2022/09/07 02:51:05;;;;;;;;;;;;;;;23.39;62.09;100781.59;2060249;28;19930;-76
2022/09/07 02:52:35;;;;;;;;;;;;;;;23.37;62.20;100791.53;2061905;28;20378;-75
2022/09/07 02:54:13;;;;;;;;;;;;;;;23.34;62.16;100786.28;2055179;28;19922;-75
2022/09/07 02:55:40;;;;;;;;;;;;;;;23.30;62.04;100795.44;2064347;28;20325;-76
2022/09/07 02:57:08;;;;;;;;;;;;;;;23.28;62.06;100783.81;2060718;28;20591;-75
2022/09/07 02:58:32;;;;;;;;;;;;;;;23.26;61.98;100788.38;2043750;29;21669;-76
2022/09/07 03:00:02;;;;;;;;;;;;;;;23.25;61.81;100789.31;2060574;28;19928;-74
2022/09/07 03:01:30;;;;;;;;;;;;;;;23.25;61.91;100781.22;2049028;29;19927;-75
2022/09/07 03:02:58;;;;;;;;;;;;;;;23.25;61.74;100792.00;2058832;28;20338;-75
2022/09/07 03:04:22;;;;;;;;;;;;;;;23.25;61.70;100792.88;2062727;28;20326;-75
2022/09/07 03:05:48;;;;;;;;;;;;;;;23.27;61.99;100795.53;2059810;28;19921;-75
2022/09/07 03:07:11;;;;;;;;;;;;;;;23.27;61.76;100793.72;2056758;28;19928;-75
2022/09/07 03:08:37;;;;;;;;;;;;;;;23.26;61.74;100791.94;2058762;28;19922;-75
2022/09/07 03:10:01;;;;;;;;;;;;;;;23.25;61.82;100795.56;2064616;28;20346;-74
2022/09/07 03:11:23;;;;;;;;;;;;;;;23.24;61.90;100801.88;2061162;28;19925;-76
2022/09/07 03:12:46;;;;;;;;;;;;;;;23.24;61.84;100799.19;2064470;28;20460;-74
2022/09/07 03:14:12;;;;;;;;;;;;;;;23.23;61.95;100789.38;2062223;28;19953;-75
2022/09/07 03:15:34;;;;;;;;;;;;;;;23.26;61.74;100788.38;2053767;28;20671;-75
2022/09/07 03:16:55;;;;;;;;;;;;;;;23.31;61.85;100795.34;2051354;28;19922;-75
2022/09/07 03:18:19;;;;;;;;;;;;;;;23.36;61.64;100801.47;2049158;28;19961;-74
2022/09/07 03:19:42;;;;;;;;;;;;;;;23.40;61.66;100796.84;2056833;28;19957;-75
2022/09/07 03:21:04;;;;;;;;;;;;;;;23.41;61.72;100801.28;2061141;28;20275;-75
2022/09/07 03:22:25;;;;;;;;;;;;;;;23.41;61.65;100802.19;2062276;28;19929;-75
2022/09/07 03:23:47;;;;;;;;;;;;;;;23.41;61.82;100804.00;2056175;28;20372;-76
2022/09/07 03:25:09;;;;;;;;;;;;;;;23.40;61.82;100807.63;2042260;29;19978;-75
2022/09/07 03:26:31;;;;;;;;;;;;;;;23.39;61.88;100805.84;2043704;28;20188;-75
2022/09/07 03:27:53;;;;;;;;;;;;;;;23.40;61.84;100813.88;2059128;28;19949;-75
2022/09/07 03:29:14;;;;;;;;;;;;;;;23.41;61.83;100815.66;2061196;28;20494;-75
2022/09/07 03:30:36;;;;;;;;;;;;;;;23.43;61.88;100812.91;2060937;28;19922;-75
2022/09/07 03:31:57;;;;;;;;;;;;;;;23.47;61.79;100803.78;2062521;28;19921;-76
2022/09/07 03:33:21;;;;;;;;;;;;;;;23.49;61.99;100809.13;2048302;28;19949;-75
2022/09/07 03:34:43;;;;;;;;;;;;;;;23.52;61.87;100817.97;2058183;28;19921;-76
2022/09/07 03:36:06;;;;;;;;;;;;;;;23.55;61.94;100815.19;2060534;28;21843;-76
2022/09/07 03:37:29;;;;;;;;;;;;;;;23.58;61.74;100816.88;2055886;28;19962;-75
2022/09/07 03:38:50;;;;;;;;;;;;;;;23.60;61.72;100815.00;2052057;28;20021;-75
2022/09/07 03:40:13;;;;;;;;;;;;;;;23.60;61.52;100815.88;2050298;28;19930;-75
2022/09/07 03:41:34;;;;;;;;;;;;;;;23.61;61.53;100820.34;2059929;28;19957;-74
2022/09/07 03:42:57;;;;;;;;;;;;;;;23.60;61.56;100821.28;2053840;28;20020;-74
2022/09/07 03:44:17;;;;;;;;;;;;;;;23.59;61.56;100824.03;2048637;28;19969;-74
2022/09/07 03:45:40;;;;;;;;;;;;;;;23.54;61.95;100818.81;2050564;28;20021;-74
2022/09/07 03:47:02;;;;;;;;;;;;;;;23.50;61.85;100825.22;2052238;28;19977;-75
2022/09/07 03:48:29;;;;;;;;;;;;;;;23.47;61.98;100830.75;2058175;28;20020;-75
2022/09/07 03:49:52;;;;;;;;;;;;;;;23.43;61.95;100818.28;2062939;28;20400;-76
2022/09/07 03:51:14;;;;;;;;;;;;;;;23.39;62.13;100817.50;2047249;28;19922;-75
2022/09/07 03:52:36;;;;;;;;;;;;;;;23.39;61.99;100817.50;2055932;28;19933;-75
2022/09/07 03:53:59;;;;;;;;;;;;;;;23.39;62.03;100822.91;2059574;28;19944;-74
2022/09/07 03:55:21;;;;;;;;;;;;;;;23.42;61.83;100822.81;2060927;28;19926;-75
2022/09/07 03:56:42;;;;;;;;;;;;;;;23.42;61.83;100821.91;2046287;28;19998;-75
2022/09/07 03:58:05;;;;;;;;;;;;;;;23.43;61.80;100829.06;2060793;28;19934;-75
2022/09/07 03:59:26;;;;;;;;;;;;;;;23.42;61.85;100827.31;2055717;28;20017;-75
2022/09/07 04:00:48;;;;;;;;;;;;;;;23.44;61.68;100825.41;2053343;28;19928;-75
2022/09/07 04:02:11;;;;;;;;;;;;;;;23.48;61.74;100828.94;2052590;28;20454;-75
2022/09/07 04:03:34;;;;;;;;;;;;;;;23.51;61.58;100827.00;2058913;28;20606;-75
2022/09/07 04:04:56;;;;;;;;;;;;;;;23.53;61.48;100829.63;2053063;28;19922;-75
2022/09/07 04:06:20;;;;;;;;;;;;;;;23.52;61.57;100835.97;2049689;28;19922;-75
2022/09/07 04:07:41;;;;;;;;;;;;;;;23.53;61.31;100835.03;2046487;28;19986;-75
2022/09/07 04:09:04;;;;;;;;;;;;;;;23.54;61.45;100837.69;2058818;28;19929;-74
2022/09/07 04:10:25;;;;;;;;;;;;;;;23.60;61.41;100836.56;2060304;28;19921;-74
2022/09/07 04:11:47;;;;;;;;;;;;;;;23.64;61.22;100838.19;2059002;28;20056;-74
2022/09/07 04:13:10;;;;;;;;;;;;;;;23.68;61.07;100839.88;2061360;28;20577;-75
2022/09/07 04:14:31;;;;;;;;;;;;;;;23.71;61.16;100835.22;2059563;28;20396;-75
2022/09/07 04:15:53;;;;;;;;;;;;;;;23.71;61.26;100834.34;2064137;28;19961;-75
2022/09/07 04:17:16;;;;;;;;;;;;;;;23.70;61.44;100841.53;2045992;29;20025;-75
2022/09/07 04:18:38;;;;;;;;;;;;;;;23.69;61.25;100837.13;2062888;28;20345;-74
2022/09/07 04:20:00;;;;;;;;;;;;;;;23.72;61.43;100845.06;2055156;28;19922;-74
2022/09/07 04:21:22;;;;;;;;;;;;;;;23.80;61.37;100844.78;2051244;28;19925;-74
2022/09/07 04:22:47;;;;;;;;;;;;;;;23.87;61.27;100845.44;2059294;28;19938;-74
2022/09/07 04:24:10;;;;;;;;;;;;;;;23.94;61.29;100844.28;2059956;28;19922;-74
2022/09/07 04:25:31;;;;;;;;;;;;;;;24.01;61.28;100844.00;2063261;28;19925;-75
2022/09/07 04:26:54;;;;;;;;;;;;;;;24.08;61.01;100845.50;2061069;28;19922;-75
2022/09/07 04:28:14;;;;;;;;;;;;;;;24.12;61.10;100848.94;2059444;28;19926;-75
2022/09/07 04:29:37;;;;;;;;;;;;;;;24.15;60.83;100857.81;2060780;28;19932;-75
2022/09/07 04:30:59;;;;;;;;;;;;;;;24.21;61.04;100851.34;2068942;28;19964;-74
2022/09/07 04:32:21;;;;;;;;;;;;;;;24.27;60.65;100863.72;2063374;28;19948;-75
2022/09/07 04:33:44;;;;;;;;;;;;;;;24.30;60.22;100856.34;2060257;28;19953;-75
2022/09/07 04:35:07;;;;;;;;;;;;;;;24.30;60.42;100860.88;2061866;28;19926;-75
2022/09/07 04:36:30;;;;;;;;;;;;;;;24.30;60.49;100869.84;2060548;28;20025;-74
2022/09/07 04:37:52;;;;;;;;;;;;;;;24.31;59.95;100859.94;2045937;29;19933;-75
2022/09/07 04:39:14;;;;;;;;;;;;;;;24.30;60.29;100861.75;2048616;28;19922;-75
2022/09/07 04:40:35;;;;;;;;;;;;;;;24.29;60.35;100859.09;2056573;28;19922;-75
2022/09/07 04:41:57;;;;;;;;;;;;;;;24.29;60.21;100864.50;2052868;28;19922;-75
2022/09/07 04:43:18;;;;;;;;;;;;;;;24.28;60.05;100866.34;2058068;28;19922;-74
2022/09/07 04:44:41;;;;;;;;;;;;;;;24.31;60.35;100868.03;2062915;28;20444;-75
2022/09/07 04:46:02;;;;;;;;;;;;;;;24.33;60.07;100877.84;2061284;28;19971;-74
2022/09/07 04:47:24;;;;;;;;;;;;;;;24.33;60.07;100877.84;2058640;28;19922;-74
2022/09/07 04:48:48;;;;;;;;;;;;;;;24.32;60.42;100878.78;2063208;28;19922;-75
2022/09/07 04:50:10;;;;;;;;;;;;;;;24.29;60.44;100876.19;2063437;28;20023;-75
2022/09/07 04:51:33;;;;;;;;;;;;;;;24.33;60.42;100874.25;2053297;28;19930;-74
2022/09/07 04:52:54;;;;;;;;;;;;;;;24.34;60.49;100879.59;2060043;28;20016;-74
2022/09/07 04:54:16;;;;;;;;;;;;;;;24.39;60.40;100880.28;2053622;28;19926;-75
2022/09/07 04:55:37;;;;;;;;;;;;;;;24.40;60.54;100882.06;2054179;28;20449;-75
2022/09/07 04:56:59;;;;;;;;;;;;;;;24.45;60.81;100892.66;2062144;28;19928;-75
2022/09/07 04:58:22;;;;;;;;;;;;;;;24.53;60.98;100883.31;2061992;28;19956;-75
2022/09/07 04:59:43;;;;;;;;;;;;;;;24.67;60.70;100888.19;2056825;28;19922;-75
2022/09/07 05:01:06;;;;;;;;;;;;;;;24.77;60.36;100889.53;2065856;28;20016;-76
2022/09/07 05:02:28;;;;;;;;;;;;;;;24.89;60.46;100880.97;2064066;28;20319;-76
2022/09/07 05:03:52;;;;;;;;;;;;;;;24.94;60.26;100888.91;2062659;28;19948;-76
2022/09/07 05:05:13;;;;;;;;;;;;;;;24.97;60.04;100884.22;2061699;28;19976;-75
2022/09/07 05:06:36;;;;;;;;;;;;;;;24.98;60.04;100888.69;2062863;28;20330;-75
2022/09/07 05:07:57;;;;;;;;;;;;;;;24.98;59.83;100887.81;2055041;28;20381;-76
2022/09/07 05:09:19;;;;;;;;;;;;;;;24.97;60.37;100896.84;2055129;28;19922;-76
2022/09/07 05:10:49;;;;;;;;;;;;;;;24.98;60.45;100885.13;2054552;28;20346;-76
2022/09/07 05:12:11;;;;;;;;;;;;;;;24.99;60.40;100903.09;2063891;28;19976;-76
2022/09/07 05:13:33;;;;;;;;;;;;;;;24.96;60.68;100895.09;2068315;28;19925;-77
2022/09/07 05:14:55;;;;;;;;;;;;;;;24.95;60.63;100896.03;2057542;28;19953;-76
2022/09/07 05:16:17;;;;;;;;;;;;;;;24.92;60.57;100894.34;2062897;28;19926;-75
2022/09/07 05:17:40;;;;;;;;;;;;;;;24.92;60.32;100888.06;2057825;28;19922;-74
2022/09/07 05:19:05;;;;;;;;;;;;;;;25.02;60.56;100897.53;2063232;28;20016;-75
2022/09/07 05:20:26;;;;;;;;;;;;;;;25.20;59.93;100893.22;2062301;28;19926;-76
2022/09/07 05:21:48;;;;;;;;;;;;;;;25.31;59.52;100912.53;2063108;28;19925;-75
2022/09/07 05:23:10;;;;;;;;;;;;;;;25.39;59.84;100916.69;2063045;28;20016;-76
2022/09/07 05:24:32;;;;;;;;;;;;;;;25.41;59.18;100898.53;2062997;28;20025;-76
2022/09/07 05:25:55;;;;;;;;;;;;;;;25.37;59.33;100902.34;2056617;28;20424;-76
2022/09/07 05:27:17;;;;;;;;;;;;;;;25.32;59.84;100907.06;2044260;29;19929;-76
2022/09/07 05:28:38;;;;;;;;;;;;;;;25.33;59.72;100905.25;2052663;28;20231;-75
2022/09/07 05:30:01;;;;;;;;;;;;;;;25.38;59.64;100901.41;2062934;28;20370;-76
2022/09/07 05:31:22;;;;;;;;;;;;;;;25.52;59.72;100905.31;2062290;28;19926;-76
2022/09/07 05:32:44;;;;;;;;;;;;;;;25.79;59.80;100904.13;2061193;28;19922;-76
2022/09/07 05:34:09;;;;;;;;;;;;;;;26.11;59.27;100908.97;2062928;28;20016;-76
2022/09/07 05:35:31;;;;;;;;;;;;;;;26.31;58.33;100901.75;2064218;28;19925;-76
2022/09/07 05:36:53;;;;;;;;;;;;;;;26.35;57.83;100908.78;2065096;28;20353;-75
2022/09/07 05:38:16;;;;;;;;;;;;;;;26.26;57.85;100911.91;2061468;28;19922;-76
2022/09/07 05:39:38;;;;;;;;;;;;;;;26.11;57.90;100911.66;2062328;28;20445;-74
2022/09/07 05:41:00;;;;;;;;;;;;;;;26.03;58.54;100913.84;2054830;28;19985;-76
2022/09/07 05:42:23;;;;;;;;;;;;;;;25.99;58.65;100911.34;2052571;28;19926;-76
2022/09/07 05:43:46;;;;;;;;;;;;;;;25.97;58.47;100907.81;2056918;28;19922;-75
2022/09/07 05:45:08;;;;;;;;;;;;;;;25.95;58.45;100910.59;2060657;28;19929;-76
2022/09/07 05:46:30;;;;;;;;;;;;;;;25.91;58.57;100909.00;2062928;28;20356;-76
2022/09/07 05:47:53;;;;;;;;;;;;;;;25.83;58.30;100911.16;2064497;28;19949;-76
2022/09/07 05:49:15;;;;;;;;;;;;;;;25.75;58.50;100905.19;2063088;28;19922;-76
2022/09/07 05:50:37;;;;;;;;;;;;;;;25.70;58.42;100909.94;2061942;28;20138;-76
2022/09/07 05:52:00;;;;;;;;;;;;;;;25.66;58.49;100917.34;2061823;28;19922;-76
2022/09/07 05:53:22;;;;;;;;;;;;;;;25.67;58.72;100923.59;2062151;28;19960;-77
2022/09/07 05:54:44;;;;;;;;;;;;;;;25.65;58.79;100914.69;2061928;28;19930;-76
2022/09/07 05:56:06;;;;;;;;;;;;;;;25.61;58.39;100916.63;2061687;28;20346;-74
2022/09/07 05:57:28;;;;;;;;;;;;;;;25.60;58.37;100922.13;2054302;28;19926;-74
2022/09/07 05:58:50;;;;;;;;;;;;;;;25.58;58.85;100919.50;2051446;28;19972;-74
2022/09/07 06:00:14;;;;;;;;;;;;;;;25.55;58.82;100926.81;2061979;28;20408;-74
2022/09/07 06:01:35;;;;;;;;;;;;;;;25.51;58.89;100934.19;2063001;28;19921;-74
2022/09/07 06:02:57;;;;;;;;;;;;;;;25.48;58.73;100920.78;2061545;28;19922;-74
2022/09/07 06:04:21;;;;;;;;;;;;;;;25.42;58.80;100929.16;2062318;28;19968;-73
2022/09/07 06:05:45;;;;;;;;;;;;;;;25.38;58.60;100920.31;2055020;28;20382;-74
2022/09/07 06:07:07;;;;;;;;;;;;;;;25.39;59.28;100932.91;2065958;28;20048;-74
2022/09/07 06:08:29;;;;;;;;;;;;;;;25.39;58.92;100929.31;2056975;28;19981;-75
2022/09/07 06:09:52;;;;;;;;;;;;;;;25.40;58.83;100922.97;2053907;28;20598;-74
2022/09/07 06:11:15;;;;;;;;;;;;;;;25.51;59.07;100922.50;2054453;28;19928;-74
2022/09/07 06:12:38;;;;;;;;;;;;;;;25.77;58.72;100936.66;2065372;28;20423;-73
2022/09/07 06:14:00;;;;;;;;;;;;;;;25.92;58.25;100932.41;2056534;28;19928;-74
2022/09/07 06:15:22;;;;;;;;;;;;;;;25.96;58.23;100928.59;2056974;28;19928;-74
2022/09/07 06:16:44;;;;;;;;;;;;;;;26.03;58.04;100940.91;2060549;28;19927;-73
2022/09/07 06:18:05;;;;;;;;;;;;;;;26.39;57.42;100941.03;2062535;28;19960;-73
2022/09/07 06:19:30;;;;;;;;;;;;;;;26.75;56.92;100930.28;2055005;28;20016;-74
2022/09/07 06:20:51;;;;;;;;;;;;;;;26.88;56.14;100942.28;2054457;28;19961;-74
2022/09/07 06:22:13;;;;;;;;;;;;;;;26.85;55.72;100941.53;2051902;28;19929;-73
2022/09/07 06:23:36;;;;;;;;;;;;;;;26.78;56.30;100940.13;2059826;28;19922;-73
2022/09/07 06:24:59;;;;;;;;;;;;;;;26.71;56.34;100942.25;2060860;28;19976;-73
2022/09/07 06:26:21;;;;;;;;;;;;;;;26.64;56.60;100946.19;2060664;28;20481;-73
2022/09/07 06:27:43;;;;;;;;;;;;;;;26.54;56.29;100945.75;2056130;28;19972;-73
2022/09/07 06:29:05;;;;;;;;;;;;;;;26.51;56.10;100937.78;2062279;28;19957;-73
2022/09/07 06:30:28;;;;;;;;;;;;;;;26.48;56.57;100937.91;2054658;28;19922;-73
2022/09/07 06:31:49;;;;;;;;;;;;;;;26.48;56.73;100935.22;2061969;28;19925;-73
2022/09/07 06:33:11;;;;;;;;;;;;;;;26.50;56.43;100945.97;2062176;28;20398;-74
2022/09/07 06:34:34;;;;;;;;;;;;;;;26.45;56.44;100931.78;2059869;28;19930;-73
2022/09/07 06:35:57;;;;;;;;;;;;;;;26.35;56.90;100934.03;2060329;28;20282;-73
2022/09/07 06:37:18;;;;;;;;;;;;;;;26.29;56.86;100938.84;2065016;28;20286;-73
2022/09/07 06:38:41;;;;;;;;;;;;;;;26.26;57.07;100934.44;2054731;28;19926;-74
2022/09/07 06:40:03;;;;;;;;;;;;;;;26.27;56.86;100933.50;2054096;28;20397;-73
2022/09/07 06:41:27;;;;;;;;;;;;;;;26.35;56.72;100941.28;2042891;28;19964;-74
2022/09/07 06:42:49;;;;;;;;;;;;;;;26.42;56.59;100924.66;2059903;28;20032;-73
2022/09/07 06:44:11;;;;;;;;;;;;;;;26.59;56.20;100940.09;2059017;28;19934;-73
2022/09/07 06:45:33;;;;;;;;;;;;;;;26.83;55.49;100938.94;2062290;28;19976;-73
2022/09/07 06:46:56;;;;;;;;;;;;;;;26.91;55.92;100941.31;2070295;28;19975;-73
2022/09/07 06:48:17;;;;;;;;;;;;;;;26.91;55.46;100941.31;2064934;28;19991;-74
2022/09/07 06:49:40;;;;;;;;;;;;;;;26.90;55.76;100940.44;2061635;28;20365;-74
2022/09/07 06:51:04;;;;;;;;;;;;;;;27.04;55.60;100942.47;2062368;28;20020;-73
2022/09/07 06:52:26;;;;;;;;;;;;;;;27.12;55.60;100937.50;2060472;28;19929;-73
2022/09/07 06:53:49;;;;;;;;;;;;;;;27.14;55.55;100934.72;2057382;28;19930;-73
2022/09/07 06:55:10;;;;;;;;;;;;;;;27.45;55.31;100942.16;2065360;28;19929;-74
2022/09/07 06:56:32;;;;;;;;;;;;;;;27.83;54.29;100951.09;2063741;28;20020;-73
2022/09/07 06:57:55;;;;;;;;;;;;;;;28.22;53.96;100939.94;2062449;28;19922;-74
2022/09/07 06:59:18;;;;;;;;;;;;;;;28.63;54.16;100940.34;2052913;28;20016;-74
2022/09/07 07:00:39;;;;;;;;;;;;;;;29.01;52.98;100949.09;2053818;28;19973;-73
2022/09/07 07:02:01;;;;;;;;;;;;;;;29.10;53.11;100948.53;2056845;28;20016;-74
2022/09/07 07:03:23;;;;;;;;;;;;;;;29.07;52.95;100943.28;2053964;28;19922;-74
2022/09/07 07:04:48;;;;;;;;;;;;;;;28.91;52.94;100955.03;2056459;28;20347;-74
2022/09/07 07:06:11;;;;;;;;;;;;;;;28.64;52.80;100951.13;2061579;28;19921;-74
2022/09/07 07:07:33;;;;;;;;;;;;;;;28.35;53.52;100954.63;2051715;28;19929;-74